sensor_id;sensor_type;location;lat;lon;timestamp;P1;durP1;ratioP1;P2;durP2;ratioP2
58972;SDS011;44750;52.040;7.472;2023-07-28T00:02:10;1.63;;;1.53;;
58972;SDS011;44750;52.040;7.472;2023-07-28T00:07:11;1.25;;;1.15;;
58972;SDS011;44750;52.040;7.472;2023-07-28T00:12:11;1.40;;;1.30;;
58972;SDS011;44750;52.040;7.472;2023-07-28T00:17:11;1.85;;;1.33;;
58972;SDS011;44750;52.040;7.472;2023-07-28T00:22:11;1.17;;;1.08;;
58972;SDS011;44750;52.040;7.472;2023-07-28T00:27:12;1.20;;;1.10;;
58972;SDS011;44750;52.040;7.472;2023-07-28T00:32:12;1.33;;;1.23;;
58972;SDS011;44750;52.040;7.472;2023-07-28T00:37:12;0.85;;;0.82;;
58972;SDS011;44750;52.040;7.472;2023-07-28T00:42:12;1.60;;;1.35;;
58972;SDS011;44750;52.040;7.472;2023-07-28T00:47:15;1.27;;;1.17;;
58972;SDS011;44750;52.040;7.472;2023-07-28T00:52:16;1.63;;;1.53;;
58972;SDS011;44750;52.040;7.472;2023-07-28T00:57:16;1.40;;;1.10;;
58972;SDS011;44750;52.040;7.472;2023-07-28T01:02:17;1.40;;;1.30;;
58972;SDS011;44750;52.040;7.472;2023-07-28T01:12:27;1.67;;;1.35;;
58972;SDS011;44750;52.040;7.472;2023-07-28T01:17:30;1.80;;;1.23;;
58972;SDS011;44750;52.040;7.472;2023-07-28T01:22:47;1.50;;;1.40;;
58972;SDS011;44750;52.040;7.472;2023-07-28T01:27:58;1.10;;;1.00;;
58972;SDS011;44750;52.040;7.472;2023-07-28T01:33:00;1.10;;;1.00;;
58972;SDS011;44750;52.040;7.472;2023-07-28T01:38:02;1.30;;;1.08;;
58972;SDS011;44750;52.040;7.472;2023-07-28T01:43:03;1.58;;;1.25;;
58972;SDS011;44750;52.040;7.472;2023-07-28T01:48:03;1.53;;;1.27;;
58972;SDS011;44750;52.040;7.472;2023-07-28T01:53:07;1.52;;;1.42;;
58972;SDS011;44750;52.040;7.472;2023-07-28T01:58:10;3.28;;;1.33;;
58972;SDS011;44750;52.040;7.472;2023-07-28T02:03:10;1.92;;;1.50;;
58972;SDS011;44750;52.040;7.472;2023-07-28T02:08:11;1.70;;;1.60;;
58972;SDS011;44750;52.040;7.472;2023-07-28T02:13:11;2.00;;;1.70;;
58972;SDS011;44750;52.040;7.472;2023-07-28T02:18:11;2.27;;;2.10;;
58972;SDS011;44750;52.040;7.472;2023-07-28T02:23:12;1.90;;;1.80;;
58972;SDS011;44750;52.040;7.472;2023-07-28T02:28:12;2.83;;;1.98;;
58972;SDS011;44750;52.040;7.472;2023-07-28T02:33:22;4.03;;;2.10;;
58972;SDS011;44750;52.040;7.472;2023-07-28T02:38:23;2.92;;;2.60;;
58972;SDS011;44750;52.040;7.472;2023-07-28T02:43:25;2.27;;;1.97;;
58972;SDS011;44750;52.040;7.472;2023-07-28T02:48:28;3.13;;;2.28;;
58972;SDS011;44750;52.040;7.472;2023-07-28T02:53:29;2.00;;;1.77;;
58972;SDS011;44750;52.040;7.472;2023-07-28T02:58:29;1.77;;;1.65;;
58972;SDS011;44750;52.040;7.472;2023-07-28T03:03:34;2.40;;;2.17;;
58972;SDS011;44750;52.040;7.472;2023-07-28T03:08:42;1.65;;;1.55;;
58972;SDS011;44750;52.040;7.472;2023-07-28T03:13:46;2.55;;;2.00;;
58972;SDS011;44750;52.040;7.472;2023-07-28T03:19:07;2.38;;;1.80;;
58972;SDS011;44750;52.040;7.472;2023-07-28T03:29:51;1.88;;;1.77;;
58972;SDS011;44750;52.040;7.472;2023-07-28T03:34:51;3.43;;;2.10;;
58972;SDS011;44750;52.040;7.472;2023-07-28T03:39:52;3.63;;;2.70;;
58972;SDS011;44750;52.040;7.472;2023-07-28T03:44:55;2.53;;;2.33;;
58972;SDS011;44750;52.040;7.472;2023-07-28T03:49:55;4.25;;;3.28;;
58972;SDS011;44750;52.040;7.472;2023-07-28T03:54:58;3.93;;;2.70;;
58972;SDS011;44750;52.040;7.472;2023-07-28T04:00:00;3.80;;;2.97;;
58972;SDS011;44750;52.040;7.472;2023-07-28T04:05:08;3.63;;;2.55;;
58972;SDS011;44750;52.040;7.472;2023-07-28T04:10:08;2.90;;;2.60;;
58972;SDS011;44750;52.040;7.472;2023-07-28T04:15:11;3.08;;;2.60;;
58972;SDS011;44750;52.040;7.472;2023-07-28T04:20:11;2.40;;;2.20;;
58972;SDS011;44750;52.040;7.472;2023-07-28T04:25:12;2.42;;;2.22;;
58972;SDS011;44750;52.040;7.472;2023-07-28T04:30:15;2.20;;;2.00;;
58972;SDS011;44750;52.040;7.472;2023-07-28T04:35:15;4.90;;;2.30;;
58972;SDS011;44750;52.040;7.472;2023-07-28T04:40:19;2.80;;;2.40;;
58972;SDS011;44750;52.040;7.472;2023-07-28T04:45:31;4.22;;;2.10;;
58972;SDS011;44750;52.040;7.472;2023-07-28T04:50:40;3.80;;;2.70;;
58972;SDS011;44750;52.040;7.472;2023-07-28T04:55:40;2.40;;;2.20;;
58972;SDS011;44750;52.040;7.472;2023-07-28T05:00:41;2.40;;;2.15;;
58972;SDS011;44750;52.040;7.472;2023-07-28T05:05:44;2.58;;;2.33;;
58972;SDS011;44750;52.040;7.472;2023-07-28T05:10:44;4.60;;;3.60;;
58972;SDS011;44750;52.040;7.472;2023-07-28T05:15:45;4.83;;;2.90;;
58972;SDS011;44750;52.040;7.472;2023-07-28T05:20:45;4.63;;;3.00;;
58972;SDS011;44750;52.040;7.472;2023-07-28T05:25:45;3.45;;;2.58;;
58972;SDS011;44750;52.040;7.472;2023-07-28T05:30:46;3.03;;;2.73;;
58972;SDS011;44750;52.040;7.472;2023-07-28T05:35:46;6.97;;;3.17;;
58972;SDS011;44750;52.040;7.472;2023-07-28T05:40:46;3.25;;;2.95;;
58972;SDS011;44750;52.040;7.472;2023-07-28T05:45:59;3.30;;;2.72;;
58972;SDS011;44750;52.040;7.472;2023-07-28T05:56:03;3.47;;;3.05;;
58972;SDS011;44750;52.040;7.472;2023-07-28T06:01:05;3.63;;;2.90;;
58972;SDS011;44750;52.040;7.472;2023-07-28T06:06:13;4.25;;;3.25;;
58972;SDS011;44750;52.040;7.472;2023-07-28T06:11:20;4.57;;;3.10;;
58972;SDS011;44750;52.040;7.472;2023-07-28T06:21:40;3.58;;;2.80;;
58972;SDS011;44750;52.040;7.472;2023-07-28T06:26:48;2.50;;;2.30;;
58972;SDS011;44750;52.040;7.472;2023-07-28T06:32:09;4.63;;;2.55;;
58972;SDS011;44750;52.040;7.472;2023-07-28T06:37:11;3.58;;;2.88;;
58972;SDS011;44750;52.040;7.472;2023-07-28T06:42:27;4.28;;;3.05;;
58972;SDS011;44750;52.040;7.472;2023-07-28T06:53:15;4.47;;;2.80;;
58972;SDS011;44750;52.040;7.472;2023-07-28T06:58:40;2.75;;;2.38;;
58972;SDS011;44750;52.040;7.472;2023-07-28T07:04:19;4.45;;;3.03;;
58972;SDS011;44750;52.040;7.472;2023-07-28T07:09:19;3.28;;;2.90;;
58972;SDS011;44750;52.040;7.472;2023-07-28T07:14:19;4.30;;;3.03;;
58972;SDS011;44750;52.040;7.472;2023-07-28T07:19:19;6.97;;;3.25;;
58972;SDS011;44750;52.040;7.472;2023-07-28T07:24:20;6.47;;;3.53;;
58972;SDS011;44750;52.040;7.472;2023-07-28T07:29:20;5.22;;;4.03;;
58972;SDS011;44750;52.040;7.472;2023-07-28T07:34:20;3.13;;;2.85;;
58972;SDS011;44750;52.040;7.472;2023-07-28T07:39:21;6.65;;;3.65;;
58972;SDS011;44750;52.040;7.472;2023-07-28T07:44:21;6.55;;;3.08;;
58972;SDS011;44750;52.040;7.472;2023-07-28T07:49:21;4.35;;;3.20;;
58972;SDS011;44750;52.040;7.472;2023-07-28T07:54:22;4.00;;;3.33;;
58972;SDS011;44750;52.040;7.472;2023-07-28T07:59:25;6.00;;;3.67;;
58972;SDS011;44750;52.040;7.472;2023-07-28T08:04:25;4.60;;;3.40;;
58972;SDS011;44750;52.040;7.472;2023-07-28T08:09:26;5.07;;;3.80;;
58972;SDS011;44750;52.040;7.472;2023-07-28T08:14:26;7.93;;;4.65;;
58972;SDS011;44750;52.040;7.472;2023-07-28T08:19:26;7.10;;;5.22;;
58972;SDS011;44750;52.040;7.472;2023-07-28T08:24:26;6.50;;;4.85;;
58972;SDS011;44750;52.040;7.472;2023-07-28T08:29:26;4.78;;;4.28;;
58972;SDS011;44750;52.040;7.472;2023-07-28T08:34:27;8.50;;;5.13;;
58972;SDS011;44750;52.040;7.472;2023-07-28T08:39:27;8.60;;;4.53;;
58972;SDS011;44750;52.040;7.472;2023-07-28T08:44:30;9.48;;;5.15;;
58972;SDS011;44750;52.040;7.472;2023-07-28T08:49:32;5.65;;;4.65;;
58972;SDS011;44750;52.040;7.472;2023-07-28T08:54:33;5.57;;;4.47;;
58972;SDS011;44750;52.040;7.472;2023-07-28T08:59:33;6.38;;;4.78;;
58972;SDS011;44750;52.040;7.472;2023-07-28T09:04:34;5.55;;;4.13;;
58972;SDS011;44750;52.040;7.472;2023-07-28T09:09:34;5.45;;;4.10;;
58972;SDS011;44750;52.040;7.472;2023-07-28T09:14:35;4.45;;;4.05;;
58972;SDS011;44750;52.040;7.472;2023-07-28T09:19:55;6.45;;;4.38;;
58972;SDS011;44750;52.040;7.472;2023-07-28T09:24:56;4.47;;;3.70;;
58972;SDS011;44750;52.040;7.472;2023-07-28T09:29:56;5.93;;;3.57;;
58972;SDS011;44750;52.040;7.472;2023-07-28T09:35:11;3.30;;;3.00;;
58972;SDS011;44750;52.040;7.472;2023-07-28T09:40:13;5.18;;;4.22;;
58972;SDS011;44750;52.040;7.472;2023-07-28T09:45:17;5.50;;;3.60;;
58972;SDS011;44750;52.040;7.472;2023-07-28T09:50:18;4.38;;;3.65;;
58972;SDS011;44750;52.040;7.472;2023-07-28T09:55:23;4.32;;;3.72;;
58972;SDS011;44750;52.040;7.472;2023-07-28T10:00:24;5.70;;;3.67;;
58972;SDS011;44750;52.040;7.472;2023-07-28T10:05:25;5.80;;;3.60;;
58972;SDS011;44750;52.040;7.472;2023-07-28T10:10:26;5.40;;;4.05;;
58972;SDS011;44750;52.040;7.472;2023-07-28T10:15:27;5.63;;;4.03;;
58972;SDS011;44750;52.040;7.472;2023-07-28T10:20:31;6.85;;;4.22;;
58972;SDS011;44750;52.040;7.472;2023-07-28T10:25:34;5.25;;;3.88;;
58972;SDS011;44750;52.040;7.472;2023-07-28T10:30:36;4.10;;;3.60;;
58972;SDS011;44750;52.040;7.472;2023-07-28T10:35:39;4.97;;;3.67;;
58972;SDS011;44750;52.040;7.472;2023-07-28T10:40:49;7.30;;;3.42;;
58972;SDS011;44750;52.040;7.472;2023-07-28T10:45:50;4.63;;;3.20;;
58972;SDS011;44750;52.040;7.472;2023-07-28T10:50:50;6.55;;;4.00;;
58972;SDS011;44750;52.040;7.472;2023-07-28T10:55:50;5.72;;;3.72;;
58972;SDS011;44750;52.040;7.472;2023-07-28T11:00:52;8.90;;;3.35;;
58972;SDS011;44750;52.040;7.472;2023-07-28T11:05:54;4.47;;;3.15;;
58972;SDS011;44750;52.040;7.472;2023-07-28T11:10:55;5.00;;;3.05;;
58972;SDS011;44750;52.040;7.472;2023-07-28T11:15:55;6.00;;;3.50;;
58972;SDS011;44750;52.040;7.472;2023-07-28T11:20:55;4.72;;;3.38;;
58972;SDS011;44750;52.040;7.472;2023-07-28T11:25:55;3.70;;;2.88;;
58972;SDS011;44750;52.040;7.472;2023-07-28T11:30:56;4.43;;;3.47;;
58972;SDS011;44750;52.040;7.472;2023-07-28T11:35:56;3.97;;;3.33;;
58972;SDS011;44750;52.040;7.472;2023-07-28T11:40:56;4.78;;;3.60;;
58972;SDS011;44750;52.040;7.472;2023-07-28T11:45:57;5.07;;;3.70;;
58972;SDS011;44750;52.040;7.472;2023-07-28T11:50:57;5.07;;;3.72;;
58972;SDS011;44750;52.040;7.472;2023-07-28T11:55:57;6.97;;;4.63;;
58972;SDS011;44750;52.040;7.472;2023-07-28T12:01:00;6.77;;;4.53;;
58972;SDS011;44750;52.040;7.472;2023-07-28T12:06:09;5.45;;;3.50;;
58972;SDS011;44750;52.040;7.472;2023-07-28T12:11:13;4.45;;;3.13;;
58972;SDS011;44750;52.040;7.472;2023-07-28T12:21:47;4.03;;;2.55;;
58972;SDS011;44750;52.040;7.472;2023-07-28T12:26:48;2.40;;;2.20;;
58972;SDS011;44750;52.040;7.472;2023-07-28T12:31:50;5.00;;;2.65;;
58972;SDS011;44750;52.040;7.472;2023-07-28T12:36:50;3.35;;;2.70;;
58972;SDS011;44750;52.040;7.472;2023-07-28T12:41:51;3.03;;;2.47;;
58972;SDS011;44750;52.040;7.472;2023-07-28T12:46:51;3.00;;;2.50;;
58972;SDS011;44750;52.040;7.472;2023-07-28T12:51:52;3.95;;;2.38;;
58972;SDS011;44750;52.040;7.472;2023-07-28T12:56:55;3.72;;;2.50;;
58972;SDS011;44750;52.040;7.472;2023-07-28T13:01:55;2.55;;;2.22;;
58972;SDS011;44750;52.040;7.472;2023-07-28T13:06:56;3.03;;;2.13;;
58972;SDS011;44750;52.040;7.472;2023-07-28T13:11:56;2.90;;;2.45;;
58972;SDS011;44750;52.040;7.472;2023-07-28T13:16:56;2.50;;;2.03;;
58972;SDS011;44750;52.040;7.472;2023-07-28T13:21:57;3.80;;;2.00;;
58972;SDS011;44750;52.040;7.472;2023-07-28T13:26:57;1.53;;;1.33;;
58972;SDS011;44750;52.040;7.472;2023-07-28T13:31:58;1.90;;;1.60;;
58972;SDS011;44750;52.040;7.472;2023-07-28T13:36:58;1.48;;;1.35;;
58972;SDS011;44750;52.040;7.472;2023-07-28T13:41:59;2.15;;;1.70;;
58972;SDS011;44750;52.040;7.472;2023-07-28T13:46:59;2.00;;;1.38;;
58972;SDS011;44750;52.040;7.472;2023-07-28T13:51:59;1.70;;;1.35;;
58972;SDS011;44750;52.040;7.472;2023-07-28T13:56:59;2.72;;;1.45;;
58972;SDS011;44750;52.040;7.472;2023-07-28T14:02:00;1.20;;;0.95;;
58972;SDS011;44750;52.040;7.472;2023-07-28T14:07:06;1.00;;;0.90;;
58972;SDS011;44750;52.040;7.472;2023-07-28T14:12:06;0.88;;;0.73;;
58972;SDS011;44750;52.040;7.472;2023-07-28T14:17:07;0.70;;;0.70;;
58972;SDS011;44750;52.040;7.472;2023-07-28T14:22:08;1.40;;;1.00;;
58972;SDS011;44750;52.040;7.472;2023-07-28T14:27:08;1.10;;;0.90;;
58972;SDS011;44750;52.040;7.472;2023-07-28T14:32:09;2.65;;;0.80;;
58972;SDS011;44750;52.040;7.472;2023-07-28T14:37:10;0.85;;;0.52;;
58972;SDS011;44750;52.040;7.472;2023-07-28T14:42:10;1.00;;;0.73;;
58972;SDS011;44750;52.040;7.472;2023-07-28T14:47:10;1.15;;;0.68;;
58972;SDS011;44750;52.040;7.472;2023-07-28T14:52:10;1.13;;;0.80;;
58972;SDS011;44750;52.040;7.472;2023-07-28T14:57:10;0.65;;;0.65;;
58972;SDS011;44750;52.040;7.472;2023-07-28T15:02:11;1.27;;;0.60;;
58972;SDS011;44750;52.040;7.472;2023-07-28T15:07:11;0.90;;;0.77;;
58972;SDS011;44750;52.040;7.472;2023-07-28T15:12:11;0.85;;;0.73;;
58972;SDS011;44750;52.040;7.472;2023-07-28T15:17:11;2.25;;;1.00;;
58972;SDS011;44750;52.040;7.472;2023-07-28T15:22:12;0.80;;;0.80;;
58972;SDS011;44750;52.040;7.472;2023-07-28T15:27:12;0.45;;;0.45;;
58972;SDS011;44750;52.040;7.472;2023-07-28T15:32:12;0.93;;;0.75;;
58972;SDS011;44750;52.040;7.472;2023-07-28T15:37:12;0.80;;;0.77;;
58972;SDS011;44750;52.040;7.472;2023-07-28T15:42:13;1.00;;;0.80;;
58972;SDS011;44750;52.040;7.472;2023-07-28T15:47:13;1.05;;;0.50;;
58972;SDS011;44750;52.040;7.472;2023-07-28T15:52:13;1.48;;;0.90;;
58972;SDS011;44750;52.040;7.472;2023-07-28T15:57:14;4.03;;;0.90;;
58972;SDS011;44750;52.040;7.472;2023-07-28T16:02:14;1.55;;;0.82;;
58972;SDS011;44750;52.040;7.472;2023-07-28T16:07:15;1.17;;;0.88;;
58972;SDS011;44750;52.040;7.472;2023-07-28T16:12:15;0.98;;;0.90;;
58972;SDS011;44750;52.040;7.472;2023-07-28T16:17:18;0.95;;;0.82;;
58972;SDS011;44750;52.040;7.472;2023-07-28T16:22:21;1.02;;;0.93;;
58972;SDS011;44750;52.040;7.472;2023-07-28T16:27:21;0.82;;;0.63;;
58972;SDS011;44750;52.040;7.472;2023-07-28T16:32:21;0.53;;;0.53;;
58972;SDS011;44750;52.040;7.472;2023-07-28T16:37:22;1.33;;;1.20;;
58972;SDS011;44750;52.040;7.472;2023-07-28T16:42:22;1.63;;;1.10;;
58972;SDS011;44750;52.040;7.472;2023-07-28T16:47:22;1.85;;;1.27;;
58972;SDS011;44750;52.040;7.472;2023-07-28T16:52:23;1.10;;;0.90;;
58972;SDS011;44750;52.040;7.472;2023-07-28T16:57:24;1.13;;;0.87;;
58972;SDS011;44750;52.040;7.472;2023-07-28T17:02:24;1.00;;;0.77;;
58972;SDS011;44750;52.040;7.472;2023-07-28T17:07:24;0.77;;;0.65;;
58972;SDS011;44750;52.040;7.472;2023-07-28T17:12:25;0.98;;;0.75;;
58972;SDS011;44750;52.040;7.472;2023-07-28T17:17:25;2.40;;;0.90;;
58972;SDS011;44750;52.040;7.472;2023-07-28T17:22:25;0.43;;;0.43;;
58972;SDS011;44750;52.040;7.472;2023-07-28T17:27:26;1.42;;;0.85;;
58972;SDS011;44750;52.040;7.472;2023-07-28T17:32:26;0.68;;;0.63;;
58972;SDS011;44750;52.040;7.472;2023-07-28T17:37:26;1.10;;;0.63;;
58972;SDS011;44750;52.040;7.472;2023-07-28T17:42:26;0.82;;;0.68;;
58972;SDS011;44750;52.040;7.472;2023-07-28T17:47:26;0.63;;;0.50;;
58972;SDS011;44750;52.040;7.472;2023-07-28T17:52:28;1.30;;;0.73;;
58972;SDS011;44750;52.040;7.472;2023-07-28T17:57:28;0.77;;;0.52;;
58972;SDS011;44750;52.040;7.472;2023-07-28T18:02:28;4.30;;;1.20;;
58972;SDS011;44750;52.040;7.472;2023-07-28T18:07:28;2.10;;;1.30;;
58972;SDS011;44750;52.040;7.472;2023-07-28T18:12:29;2.47;;;1.63;;
58972;SDS011;44750;52.040;7.472;2023-07-28T18:17:29;0.47;;;0.43;;
58972;SDS011;44750;52.040;7.472;2023-07-28T18:22:31;1.17;;;0.52;;
58972;SDS011;44750;52.040;7.472;2023-07-28T18:27:31;0.68;;;0.57;;
58972;SDS011;44750;52.040;7.472;2023-07-28T18:32:32;0.63;;;0.63;;
58972;SDS011;44750;52.040;7.472;2023-07-28T18:37:32;2.63;;;0.77;;
58972;SDS011;44750;52.040;7.472;2023-07-28T18:42:32;3.15;;;0.43;;
58972;SDS011;44750;52.040;7.472;2023-07-28T18:47:33;0.52;;;0.40;;
58972;SDS011;44750;52.040;7.472;2023-07-28T18:52:33;0.45;;;0.35;;
58972;SDS011;44750;52.040;7.472;2023-07-28T18:57:33;1.05;;;0.68;;
58972;SDS011;44750;52.040;7.472;2023-07-28T19:02:33;3.92;;;3.35;;
58972;SDS011;44750;52.040;7.472;2023-07-28T19:07:33;0.77;;;0.63;;
58972;SDS011;44750;52.040;7.472;2023-07-28T19:12:34;0.97;;;0.63;;
58972;SDS011;44750;52.040;7.472;2023-07-28T19:17:34;1.20;;;0.70;;
58972;SDS011;44750;52.040;7.472;2023-07-28T19:22:34;1.52;;;0.82;;
58972;SDS011;44750;52.040;7.472;2023-07-28T19:27:34;0.63;;;0.45;;
58972;SDS011;44750;52.040;7.472;2023-07-28T19:32:35;1.00;;;0.75;;
58972;SDS011;44750;52.040;7.472;2023-07-28T19:37:35;1.42;;;0.47;;
58972;SDS011;44750;52.040;7.472;2023-07-28T19:42:35;1.40;;;0.63;;
58972;SDS011;44750;52.040;7.472;2023-07-28T19:47:35;1.33;;;0.60;;
58972;SDS011;44750;52.040;7.472;2023-07-28T19:52:35;0.85;;;0.70;;
58972;SDS011;44750;52.040;7.472;2023-07-28T19:57:36;1.20;;;0.82;;
58972;SDS011;44750;52.040;7.472;2023-07-28T20:02:36;0.63;;;0.52;;
58972;SDS011;44750;52.040;7.472;2023-07-28T20:07:36;0.80;;;0.57;;
58972;SDS011;44750;52.040;7.472;2023-07-28T20:12:36;1.30;;;0.60;;
58972;SDS011;44750;52.040;7.472;2023-07-28T20:17:37;0.90;;;0.77;;
58972;SDS011;44750;52.040;7.472;2023-07-28T20:22:37;0.90;;;0.75;;
58972;SDS011;44750;52.040;7.472;2023-07-28T20:27:43;1.20;;;0.70;;
58972;SDS011;44750;52.040;7.472;2023-07-28T20:32:44;0.90;;;0.63;;
58972;SDS011;44750;52.040;7.472;2023-07-28T20:37:45;4.35;;;0.90;;
58972;SDS011;44750;52.040;7.472;2023-07-28T20:42:45;0.65;;;0.50;;
58972;SDS011;44750;52.040;7.472;2023-07-28T20:47:45;0.60;;;0.60;;
58972;SDS011;44750;52.040;7.472;2023-07-28T20:52:46;0.60;;;0.60;;
58972;SDS011;44750;52.040;7.472;2023-07-28T20:57:46;1.38;;;1.00;;
58972;SDS011;44750;52.040;7.472;2023-07-28T21:02:46;1.10;;;0.80;;
58972;SDS011;44750;52.040;7.472;2023-07-28T21:07:46;1.63;;;0.90;;
58972;SDS011;44750;52.040;7.472;2023-07-28T21:12:46;0.85;;;0.80;;
58972;SDS011;44750;52.040;7.472;2023-07-28T21:17:47;0.85;;;0.70;;
58972;SDS011;44750;52.040;7.472;2023-07-28T21:22:47;1.23;;;0.98;;
58972;SDS011;44750;52.040;7.472;2023-07-28T21:27:49;0.63;;;0.60;;
58972;SDS011;44750;52.040;7.472;2023-07-28T21:32:49;0.68;;;0.68;;
58972;SDS011;44750;52.040;7.472;2023-07-28T21:37:50;0.90;;;0.77;;
58972;SDS011;44750;52.040;7.472;2023-07-28T21:42:50;0.80;;;0.77;;
58972;SDS011;44750;52.040;7.472;2023-07-28T21:47:50;1.15;;;0.85;;
58972;SDS011;44750;52.040;7.472;2023-07-28T21:52:50;1.00;;;0.82;;
58972;SDS011;44750;52.040;7.472;2023-07-28T21:57:51;1.75;;;1.20;;
58972;SDS011;44750;52.040;7.472;2023-07-28T22:02:51;1.20;;;1.10;;
58972;SDS011;44750;52.040;7.472;2023-07-28T22:07:51;0.82;;;0.82;;
58972;SDS011;44750;52.040;7.472;2023-07-28T22:12:51;1.38;;;1.25;;
58972;SDS011;44750;52.040;7.472;2023-07-28T22:17:52;1.13;;;1.02;;
58972;SDS011;44750;52.040;7.472;2023-07-28T22:22:52;1.30;;;1.20;;
58972;SDS011;44750;52.040;7.472;2023-07-28T22:27:52;3.75;;;1.60;;
58972;SDS011;44750;52.040;7.472;2023-07-28T22:32:53;1.73;;;1.15;;
58972;SDS011;44750;52.040;7.472;2023-07-28T22:37:53;2.10;;;1.40;;
58972;SDS011;44750;52.040;7.472;2023-07-28T22:42:53;2.57;;;1.63;;
58972;SDS011;44750;52.040;7.472;2023-07-28T22:47:54;2.40;;;1.95;;
58972;SDS011;44750;52.040;7.472;2023-07-28T22:52:54;3.22;;;1.45;;
58972;SDS011;44750;52.040;7.472;2023-07-28T22:57:54;1.85;;;1.63;;
58972;SDS011;44750;52.040;7.472;2023-07-28T23:02:54;1.73;;;1.45;;
58972;SDS011;44750;52.040;7.472;2023-07-28T23:07:55;5.97;;;2.00;;
58972;SDS011;44750;52.040;7.472;2023-07-28T23:12:55;1.65;;;1.45;;
58972;SDS011;44750;52.040;7.472;2023-07-28T23:17:55;2.53;;;1.50;;
58972;SDS011;44750;52.040;7.472;2023-07-28T23:22:56;2.13;;;1.85;;
58972;SDS011;44750;52.040;7.472;2023-07-28T23:27:56;3.50;;;2.03;;
58972;SDS011;44750;52.040;7.472;2023-07-28T23:32:56;2.00;;;1.75;;
58972;SDS011;44750;52.040;7.472;2023-07-28T23:37:56;1.67;;;1.20;;
58972;SDS011;44750;52.040;7.472;2023-07-28T23:42:57;1.83;;;1.35;;
58972;SDS011;44750;52.040;7.472;2023-07-28T23:47:57;1.63;;;1.08;;
58972;SDS011;44750;52.040;7.472;2023-07-28T23:52:57;1.55;;;1.38;;
58972;SDS011;44750;52.040;7.472;2023-07-28T23:57:57;1.73;;;1.17;;
